Terminal Aerodrome Forecast
Issued by NWS

Home | Current Version | Previous Version | Text Only | Print | Product List | Glossary On
Versions: 1 2 3 4 5 6 7 8 9 10 11 12 13 14 15 16 17 18 19 20 21 22 23 24 25 26 27 28 29 30 31 32 33 34 35 36
382
FTUS43 KDDC 140521
TAFHYS
TAF
KHYS 140521Z 1406/1506 VRB05KT P6SM BKN250
     FM140900 31010G20KT P6SM SCT250
     FM141800 35013G23KT P6SM SCT150 BKN250
     FM142100 27007KT P6SM SCT150 SCT250=

USA.gov is the U.S. government's official web portal to all federal, state and local government web resources and services.